createdAt,value
2022-09-10T00:01:36.492Z,1.29
2022-09-10T00:04:07.415Z,1.39
2022-09-10T00:06:34.206Z,1.57
2022-09-10T00:09:01.179Z,1.19
2022-09-10T00:11:29.298Z,1.29
2022-09-10T00:13:56.038Z,1.25
2022-09-10T00:16:23.121Z,1.05
2022-09-10T00:18:49.812Z,1.03
2022-09-10T00:21:19.444Z,0.92
2022-09-10T00:23:46.422Z,0.97
2022-09-10T00:26:22.125Z,1.06
2022-09-10T00:28:50.602Z,0.87
2022-09-10T00:31:18.114Z,1.01
2022-09-10T00:33:45.567Z,0.93
2022-09-10T00:36:33.622Z,0.93
2022-09-10T00:39:04.605Z,0.96
2022-09-10T00:41:33.091Z,0.91
2022-09-10T00:44:27.573Z,0.99
2022-09-10T00:46:55.857Z,0.93
2022-09-10T00:49:33.712Z,0.92
2022-09-10T00:52:01.938Z,0.90
2022-09-10T00:54:33.685Z,0.92
2022-09-10T00:57:08.141Z,0.93
2022-09-10T00:59:36.054Z,0.91
2022-09-10T01:02:02.886Z,0.97
2022-09-10T01:04:29.805Z,0.98
2022-09-10T01:07:01.645Z,0.97
2022-09-10T01:09:29.535Z,0.94
2022-09-10T01:12:22.370Z,1.08
2022-09-10T01:15:02.172Z,1.50
2022-09-10T01:17:47.384Z,1.65
2022-09-10T01:20:51.589Z,1.63
2022-09-10T01:23:46.186Z,1.18
2022-09-10T01:26:18.856Z,1.69
2022-09-10T01:29:02.216Z,1.66
2022-09-10T01:31:28.804Z,1.66
2022-09-10T01:34:04.970Z,1.57
2022-09-10T01:36:38.452Z,1.22
2022-09-10T01:39:05.023Z,1.14
2022-09-10T01:41:31.583Z,1.11
2022-09-10T01:43:58.434Z,1.10
2022-09-10T01:46:45.159Z,0.94
2022-09-10T01:49:36.377Z,1.15
2022-09-10T01:52:19.621Z,1.13
2022-09-10T01:55:13.298Z,0.88
2022-09-10T01:57:49.401Z,1.00
2022-09-10T02:00:19.524Z,1.06
2022-09-10T02:02:58.979Z,0.97
2022-09-10T02:05:30.392Z,0.87
2022-09-10T02:08:03.121Z,0.82
2022-09-10T02:10:29.860Z,1.07
2022-09-10T02:12:56.823Z,0.95
2022-09-10T02:15:27.024Z,0.79
2022-09-10T02:17:54.708Z,0.87
2022-09-10T02:20:21.922Z,0.76
2022-09-10T02:22:55.417Z,0.84
2022-09-10T02:25:22.403Z,0.81
2022-09-10T02:27:49.141Z,0.68
2022-09-10T02:30:15.837Z,0.75
2022-09-10T02:32:42.451Z,0.80
2022-09-10T02:35:09.356Z,0.75
2022-09-10T02:37:36.079Z,0.72
2022-09-10T02:40:03.607Z,0.67
2022-09-10T02:42:30.354Z,0.56
2022-09-10T02:44:57.072Z,0.69
2022-09-10T02:47:23.786Z,0.80
2022-09-10T02:49:50.294Z,0.68
2022-09-10T02:52:16.895Z,0.81
2022-09-10T02:54:44.154Z,0.72
2022-09-10T02:57:10.958Z,0.77
2022-09-10T02:59:38.193Z,0.81
2022-09-10T03:02:05.144Z,0.98
2022-09-10T03:04:32.026Z,0.88
2022-09-10T03:06:58.793Z,0.88
2022-09-10T03:09:25.934Z,0.96
2022-09-10T03:11:52.735Z,1.22
2022-09-10T03:14:19.582Z,1.22
2022-09-10T03:16:49.566Z,1.09
2022-09-10T03:19:16.394Z,1.16
2022-09-10T03:21:43.151Z,1.10
2022-09-10T03:24:09.693Z,1.04
2022-09-10T03:26:36.737Z,0.95
2022-09-10T03:29:03.323Z,0.92
2022-09-10T03:31:29.909Z,1.05
2022-09-10T03:33:56.757Z,0.96
2022-09-10T03:36:23.611Z,0.87
2022-09-10T03:38:50.114Z,0.91
2022-09-10T03:41:17.421Z,0.89
2022-09-10T03:43:43.974Z,0.96
2022-09-10T03:46:10.584Z,1.08
2022-09-10T03:48:37.410Z,1.04
2022-09-10T03:51:04.210Z,1.21
2022-09-10T03:53:30.872Z,1.14
2022-09-10T03:55:57.647Z,1.18
2022-09-10T03:58:26.600Z,1.03
2022-09-10T04:00:53.271Z,1.09
2022-09-10T04:03:19.979Z,1.12
2022-09-10T04:05:47.185Z,1.09
2022-09-10T04:08:17.373Z,1.22
2022-09-10T04:10:46.616Z,1.17
2022-09-10T04:13:13.505Z,1.22
2022-09-10T04:15:40.877Z,1.19
2022-09-10T04:18:07.947Z,1.18
2022-09-10T04:20:34.842Z,1.11
2022-09-10T04:23:01.411Z,1.10
2022-09-10T04:25:28.247Z,1.18
2022-09-10T04:27:55.351Z,1.11
2022-09-10T04:30:22.995Z,1.29
2022-09-10T04:32:50.142Z,1.21
2022-09-10T04:35:17.170Z,1.26
2022-09-10T04:37:44.017Z,1.25
2022-09-10T04:40:11.072Z,1.23
2022-09-10T04:42:38.165Z,1.21
2022-09-10T04:45:06.497Z,1.28
2022-09-10T04:47:33.845Z,1.26
2022-09-10T04:50:00.698Z,1.27
2022-09-10T04:52:27.538Z,1.05
2022-09-10T04:54:54.118Z,1.20
2022-09-10T04:57:21.066Z,1.33
2022-09-10T04:59:47.843Z,1.28
2022-09-10T05:02:14.523Z,1.42
2022-09-10T05:04:44.253Z,1.34
2022-09-10T05:07:11.375Z,1.27
2022-09-10T05:09:38.863Z,1.29
2022-09-10T05:12:05.923Z,1.34
2022-09-10T05:14:32.971Z,1.31
2022-09-10T05:16:59.992Z,1.40
2022-09-10T05:19:27.266Z,1.36
2022-09-10T05:21:54.383Z,1.45
2022-09-10T05:24:21.537Z,1.16
2022-09-10T05:26:48.545Z,1.39
2022-09-10T05:29:15.625Z,1.58
2022-09-10T05:31:42.758Z,1.14
2022-09-10T05:34:09.310Z,1.24
2022-09-10T05:36:35.821Z,1.22
2022-09-10T05:39:03.065Z,1.22
2022-09-10T05:41:29.650Z,1.20
2022-09-10T05:43:56.448Z,1.33
2022-09-10T05:46:23.423Z,1.31
2022-09-10T05:48:50.823Z,1.22
2022-09-10T05:51:17.426Z,1.31
2022-09-10T05:53:43.958Z,1.17
2022-09-10T05:56:10.585Z,1.22
2022-09-10T05:58:37.275Z,1.31
2022-09-10T06:01:03.856Z,1.45
2022-09-10T06:03:30.334Z,1.21
2022-09-10T06:05:56.820Z,1.17
2022-09-10T06:08:23.476Z,1.22
2022-09-10T06:10:57.670Z,1.31
2022-09-10T06:13:24.735Z,1.30
2022-09-10T06:15:51.250Z,1.52
2022-09-10T06:18:17.883Z,1.31
2022-09-10T06:20:44.589Z,1.48
2022-09-10T06:23:11.067Z,1.30
2022-09-10T06:25:37.637Z,1.29
2022-09-10T06:28:04.151Z,1.27
2022-09-10T06:30:30.651Z,1.28
2022-09-10T06:32:57.373Z,1.22
2022-09-10T06:35:23.977Z,1.37
2022-09-10T06:37:50.527Z,1.39
2022-09-10T06:40:17.060Z,1.36
2022-09-10T06:42:43.661Z,1.64
2022-09-10T06:45:10.466Z,1.69
2022-09-10T06:48:32.442Z,1.43
2022-09-10T06:50:23.714Z,1.39
2022-09-10T06:52:50.229Z,1.28
2022-09-10T06:55:16.763Z,1.21
2022-09-10T06:57:43.298Z,1.36
2022-09-10T07:00:10.420Z,1.16
2022-09-10T07:02:36.910Z,1.20
2022-09-10T07:05:03.763Z,1.55
2022-09-10T07:07:30.279Z,1.29
2022-09-10T07:09:56.837Z,1.06
2022-09-10T07:12:23.443Z,1.30
2022-09-10T07:14:49.994Z,1.05
2022-09-10T07:17:16.615Z,1.05
2022-09-10T07:19:43.276Z,1.20
2022-09-10T07:22:09.861Z,1.17
2022-09-10T07:24:36.384Z,1.08
2022-09-10T07:27:03.019Z,1.03
2022-09-10T07:29:29.574Z,1.02
2022-09-10T07:31:56.229Z,1.22
2022-09-10T07:34:23.328Z,1.00
2022-09-10T07:36:49.904Z,1.04
2022-09-10T07:39:16.640Z,1.09
2022-09-10T07:41:43.238Z,1.11
2022-09-10T07:44:09.866Z,1.14
2022-09-10T07:46:36.455Z,1.20
2022-09-10T07:49:02.983Z,1.21
2022-09-10T07:51:30.663Z,1.32
2022-09-10T07:53:59.236Z,1.04
2022-09-10T07:56:26.349Z,1.03
2022-09-10T07:58:54.013Z,1.27
2022-09-10T08:01:21.010Z,0.94
2022-09-10T08:03:47.768Z,0.96
2022-09-10T08:06:15.937Z,0.96
2022-09-10T08:08:43.183Z,1.07
2022-09-10T08:11:18.751Z,0.94
2022-09-10T08:13:47.953Z,1.16
2022-09-10T08:16:23.166Z,0.88
2022-09-10T08:18:50.586Z,0.99
2022-09-10T08:21:19.153Z,1.17
2022-09-10T08:23:50.346Z,1.15
2022-09-10T08:26:17.029Z,0.89
2022-09-10T08:28:43.704Z,0.98
2022-09-10T08:31:14.427Z,0.93
2022-09-10T08:33:41.059Z,1.00
2022-09-10T08:36:11.107Z,1.08
2022-09-10T08:38:40.094Z,0.91
2022-09-10T08:41:21.231Z,0.97
2022-09-10T08:44:15.134Z,0.95
2022-09-10T08:46:53.166Z,1.08
2022-09-10T08:49:45.618Z,0.91
2022-09-10T08:52:52.079Z,1.22
2022-09-10T08:55:21.645Z,1.07
2022-09-10T08:58:10.727Z,0.98
2022-09-10T09:00:41.774Z,0.85
2022-09-10T09:03:22.713Z,0.87
2022-09-10T09:05:58.070Z,1.01
2022-09-10T09:08:33.719Z,1.10
2022-09-10T09:11:22.698Z,0.86
2022-09-10T09:14:07.624Z,1.02
2022-09-10T09:16:58.841Z,0.98
2022-09-10T09:19:32.633Z,1.21
2022-09-10T09:22:20.104Z,1.12
2022-09-10T09:24:56.737Z,0.99
2022-09-10T09:27:29.271Z,1.01
2022-09-10T09:30:06.353Z,1.40
2022-09-10T09:32:42.122Z,1.14
2022-09-10T09:35:28.116Z,1.15
2022-09-10T09:38:09.838Z,1.07
2022-09-10T09:41:11.603Z,1.02
2022-09-10T09:43:57.498Z,0.93
2022-09-10T09:46:24.734Z,1.24
2022-09-10T09:48:58.415Z,1.32
2022-09-10T09:51:28.637Z,1.33
2022-09-10T09:54:25.768Z,1.22
2022-09-10T09:56:51.145Z,1.15
2022-09-10T09:59:36.278Z,1.14
2022-09-10T10:02:14.443Z,1.29
2022-09-10T10:04:54.907Z,1.34
2022-09-10T10:08:01.116Z,1.33
2022-09-10T10:10:34.965Z,1.30
2022-09-10T10:13:05.407Z,1.33
2022-09-10T10:15:41.895Z,1.19
2022-09-10T10:18:30.674Z,1.09
2022-09-10T10:21:17.223Z,1.07
2022-09-10T10:23:44.480Z,1.12
2022-09-10T10:26:20.274Z,1.10
2022-09-10T10:29:07.369Z,0.99
2022-09-10T10:31:43.872Z,1.11
2022-09-10T10:34:51.930Z,1.11
2022-09-10T10:37:46.635Z,1.67
2022-09-10T10:40:29.412Z,1.05
2022-09-10T10:42:59.003Z,1.07
2022-09-10T10:45:36.063Z,1.06
2022-09-10T10:48:18.227Z,0.97
2022-09-10T10:50:53.121Z,0.92
2022-09-10T10:53:53.460Z,0.81
2022-09-10T10:56:29.751Z,0.85
2022-09-10T10:59:26.545Z,1.04
2022-09-10T11:02:01.153Z,1.12
2022-09-10T11:04:48.294Z,0.98
2022-09-10T11:07:20.631Z,1.11
2022-09-10T11:10:11.953Z,0.97
2022-09-10T11:13:12.653Z,0.94
2022-09-10T11:15:51.243Z,0.95
2022-09-10T11:18:37.865Z,0.92
2022-09-10T11:21:29.124Z,0.99
2022-09-10T11:24:16.366Z,0.89
2022-09-10T11:26:47.914Z,1.33
2022-09-10T11:29:36.029Z,1.05
2022-09-10T11:32:07.731Z,1.07
2022-09-10T11:34:45.310Z,1.20
2022-09-10T11:37:42.499Z,1.01
2022-09-10T11:40:19.992Z,1.04
2022-09-10T11:42:54.175Z,0.71
2022-09-10T11:45:41.293Z,0.74
2022-09-10T11:48:42.068Z,0.82
2022-09-10T11:51:32.971Z,0.74
2022-09-10T11:54:03.279Z,0.82
2022-09-10T11:56:35.114Z,0.75
2022-09-10T11:59:30.924Z,0.77
2022-09-10T12:02:25.389Z,0.71
2022-09-10T12:05:42.873Z,0.73
2022-09-10T12:08:47.554Z,0.85
2022-09-10T12:11:48.224Z,0.90
2022-09-10T12:14:19.946Z,0.79
2022-09-10T12:16:54.860Z,0.83
2022-09-10T12:19:30.181Z,1.00
2022-09-10T12:22:06.361Z,0.84
2022-09-10T12:24:39.013Z,0.98
2022-09-10T12:27:07.461Z,0.94
2022-09-10T12:29:40.967Z,0.96
2022-09-10T12:32:19.257Z,0.70
2022-09-10T12:34:47.824Z,0.79
2022-09-10T12:37:21.143Z,0.79
2022-09-10T12:39:48.401Z,0.80
2022-09-10T12:42:29.630Z,0.64
2022-09-10T12:44:56.408Z,0.73
2022-09-10T12:47:43.174Z,0.75
2022-09-10T12:50:32.183Z,0.76
2022-09-10T12:53:11.477Z,0.78
2022-09-10T12:56:04.997Z,0.78
2022-09-10T12:58:58.256Z,0.67
2022-09-10T13:01:44.802Z,0.82
2022-09-10T13:04:23.649Z,0.79
2022-09-10T13:06:54.650Z,0.60
2022-09-10T13:09:26.447Z,0.75
2022-09-10T13:11:58.517Z,0.78
2022-09-10T13:14:33.590Z,0.62
2022-09-10T13:17:00.266Z,0.58
2022-09-10T13:19:26.748Z,0.66
2022-09-10T13:21:55.385Z,0.73
2022-09-10T13:24:34.225Z,0.76
2022-09-10T13:27:12.926Z,0.79
2022-09-10T13:29:55.706Z,0.69
2022-09-10T13:32:33.014Z,0.73
2022-09-10T13:35:32.090Z,1.39
2022-09-10T13:38:49.611Z,1.16
2022-09-10T13:41:35.105Z,1.04
2022-09-10T13:44:28.394Z,1.16
2022-09-10T13:46:58.602Z,0.97
2022-09-10T13:49:54.023Z,1.03
2022-09-10T13:52:37.387Z,0.88
2022-09-10T13:55:07.229Z,0.82
2022-09-10T13:57:39.846Z,0.91
2022-09-10T14:00:12.540Z,0.81
2022-09-10T14:02:53.843Z,0.70
2022-09-10T14:05:39.675Z,0.65
2022-09-10T14:08:12.304Z,0.80
2022-09-10T14:10:52.492Z,0.67
2022-09-10T14:13:30.061Z,0.76
2022-09-10T14:15:59.978Z,0.80
2022-09-10T14:18:37.711Z,0.95
2022-09-10T14:21:05.257Z,0.93
2022-09-10T14:23:32.379Z,0.77
2022-09-10T14:26:31.515Z,0.80
2022-09-10T14:29:24.323Z,0.77
2022-09-10T14:31:50.960Z,1.03
2022-09-10T14:34:35.512Z,0.64
2022-09-10T14:37:33.461Z,0.95
2022-09-10T14:40:18.939Z,0.89
2022-09-10T14:42:47.841Z,0.76
2022-09-10T14:45:40.117Z,0.87
2022-09-10T14:48:28.196Z,0.82
2022-09-10T14:51:09.464Z,0.86
2022-09-10T14:53:35.981Z,0.92
2022-09-10T14:56:04.684Z,0.89
2022-09-10T14:58:31.169Z,0.92
2022-09-10T15:00:58.075Z,0.95
2022-09-10T15:03:27.252Z,0.87
2022-09-10T15:05:53.788Z,0.94
2022-09-10T15:08:20.361Z,0.95
2022-09-10T15:10:49.528Z,0.79
2022-09-10T15:13:17.262Z,1.01
2022-09-10T15:15:43.837Z,0.82
2022-09-10T15:18:13.201Z,0.73
2022-09-10T15:20:39.865Z,0.75
2022-09-10T15:23:06.319Z,0.94
2022-09-10T15:25:49.518Z,0.81
2022-09-10T15:28:16.099Z,0.82
2022-09-10T15:30:42.675Z,1.03
2022-09-10T15:33:13.104Z,0.95
2022-09-10T15:35:39.564Z,0.86
2022-09-10T15:38:06.026Z,0.87
2022-09-10T15:40:32.476Z,1.08
2022-09-10T15:42:58.947Z,0.88
2022-09-10T15:45:25.464Z,1.40
2022-09-10T15:47:51.915Z,1.61
2022-09-10T15:50:18.394Z,0.93
2022-09-10T15:52:44.933Z,0.78
2022-09-10T15:55:11.976Z,1.01
2022-09-10T15:57:38.520Z,0.89
2022-09-10T16:00:06.229Z,1.00
2022-09-10T16:02:34.006Z,1.06
2022-09-10T16:05:00.550Z,1.27
2022-09-10T16:07:27.218Z,1.29
2022-09-10T16:09:53.928Z,1.03
2022-09-10T16:12:20.459Z,0.98
2022-09-10T16:14:47.039Z,1.00
2022-09-10T16:17:13.807Z,0.85
2022-09-10T16:19:40.277Z,0.97
2022-09-10T16:22:06.735Z,0.89
2022-09-10T16:24:33.301Z,0.91
2022-09-10T16:27:00.017Z,0.98
2022-09-10T16:29:26.894Z,1.06
2022-09-10T16:31:53.376Z,1.19
2022-09-10T16:34:20.788Z,1.15
2022-09-10T16:36:48.742Z,1.01
2022-09-10T16:39:16.071Z,1.19
2022-09-10T16:41:45.316Z,1.13
2022-09-10T16:44:13.939Z,1.12
2022-09-10T16:46:41.231Z,1.00
2022-09-10T16:49:10.453Z,0.96
2022-09-10T16:51:36.929Z,1.12
2022-09-10T16:54:06.573Z,1.13
2022-09-10T16:56:42.634Z,1.22
2022-09-10T16:59:15.711Z,1.11
2022-09-10T17:01:44.001Z,1.46
2022-09-10T17:04:19.765Z,1.27
2022-09-10T17:06:47.990Z,1.47
2022-09-10T17:09:15.190Z,1.25
2022-09-10T17:11:41.676Z,1.19
2022-09-10T17:14:08.117Z,1.21
2022-09-10T17:16:37.233Z,1.16
2022-09-10T17:19:10.039Z,1.23
2022-09-10T17:21:39.086Z,1.20
2022-09-10T17:24:08.483Z,1.15
2022-09-10T17:26:36.176Z,0.86
2022-09-10T17:29:06.029Z,1.02
2022-09-10T17:31:34.024Z,1.13
2022-09-10T17:34:01.382Z,0.89
2022-09-10T17:36:28.242Z,1.12
2022-09-10T17:38:55.240Z,1.14
2022-09-10T17:41:23.782Z,1.48
2022-09-10T17:43:50.293Z,1.59
2022-09-10T17:46:18.505Z,1.43
2022-09-10T17:48:45.538Z,1.62
2022-09-10T17:51:15.218Z,1.39
2022-09-10T17:53:42.225Z,1.31
2022-09-10T17:56:15.141Z,1.37
2022-09-10T17:58:41.855Z,1.15
2022-09-10T18:01:13.751Z,1.10
2022-09-10T18:03:41.207Z,1.18
2022-09-10T18:06:10.327Z,1.50
2022-09-10T18:08:38.322Z,1.47
2022-09-10T18:11:11.586Z,1.70
2022-09-10T18:13:38.095Z,1.60
2022-09-10T18:16:05.995Z,3.27
2022-09-10T18:18:33.311Z,2.60
2022-09-10T18:21:16.953Z,4.26
2022-09-10T18:23:43.513Z,1.34
2022-09-10T18:26:16.054Z,1.45
2022-09-10T18:28:51.133Z,1.34
2022-09-10T18:31:17.627Z,1.03
2022-09-10T18:33:44.148Z,1.34
2022-09-10T18:36:17.149Z,1.28
2022-09-10T18:38:44.709Z,1.20
2022-09-10T18:41:16.831Z,1.29
2022-09-10T18:43:43.435Z,1.53
2022-09-10T18:46:09.943Z,1.41
2022-09-10T18:48:36.500Z,1.47
2022-09-10T18:51:11.132Z,1.72
2022-09-10T18:53:39.105Z,1.84
2022-09-10T18:56:11.505Z,1.58
2022-09-10T18:58:38.769Z,1.64
2022-09-10T19:01:12.540Z,1.72
2022-09-10T19:03:42.279Z,1.96
2022-09-10T19:06:12.985Z,2.05
2022-09-10T19:08:45.374Z,1.83
2022-09-10T19:11:11.821Z,1.76
2022-09-10T19:13:38.344Z,1.98
2022-09-10T19:16:05.219Z,1.93
2022-09-10T19:18:31.866Z,2.00
2022-09-10T19:21:03.081Z,2.15
2022-09-10T19:23:29.684Z,1.91
2022-09-10T19:25:56.796Z,1.99
2022-09-10T19:28:24.207Z,2.02
2022-09-10T19:30:51.281Z,1.87
2022-09-10T19:33:17.960Z,1.98
2022-09-10T19:35:45.658Z,2.15
2022-09-10T19:38:34.221Z,2.20
2022-09-10T19:41:11.417Z,2.18
2022-09-10T19:43:40.163Z,2.16
2022-09-10T19:46:09.347Z,2.27
2022-09-10T19:48:36.957Z,2.08
2022-09-10T19:51:04.751Z,2.00
2022-09-10T19:53:34.314Z,2.25
2022-09-10T19:56:09.960Z,2.15
2022-09-10T19:58:37.911Z,1.99
2022-09-10T20:01:13.148Z,1.91
2022-09-10T20:03:42.163Z,1.91
2022-09-10T20:06:08.885Z,1.78
2022-09-10T20:08:35.399Z,1.95
2022-09-10T20:11:06.733Z,1.68
2022-09-10T20:13:34.540Z,1.71
2022-09-10T20:16:06.542Z,1.83
2022-09-10T20:18:35.682Z,2.08
2022-09-10T20:21:18.244Z,2.13
2022-09-10T20:23:47.630Z,2.23
2022-09-10T20:26:18.019Z,1.86
2022-09-10T20:28:45.138Z,2.17
2022-09-10T20:31:13.012Z,2.15
2022-09-10T20:33:42.438Z,2.36
2022-09-10T20:36:13.573Z,2.41
2022-09-10T20:38:40.450Z,2.21
2022-09-10T20:41:07.752Z,2.07
2022-09-10T20:43:34.445Z,2.30
2022-09-10T20:46:01.584Z,2.00
2022-09-10T20:48:28.120Z,2.06
2022-09-10T20:50:59.715Z,2.04
2022-09-10T20:53:27.194Z,1.80
2022-09-10T20:56:02.359Z,2.13
2022-09-10T20:58:28.846Z,2.26
2022-09-10T21:00:55.287Z,2.68
2022-09-10T21:03:21.725Z,2.52
2022-09-10T21:05:49.093Z,2.52
2022-09-10T21:08:15.549Z,2.22
2022-09-10T21:10:42.134Z,1.94
2022-09-10T21:13:08.650Z,1.97
2022-09-10T21:15:35.248Z,1.61
2022-09-10T21:18:01.713Z,1.73
2022-09-10T21:20:28.159Z,1.65
2022-09-10T21:22:54.609Z,1.67
2022-09-10T21:25:21.047Z,1.72
2022-09-10T21:27:47.494Z,1.70
2022-09-10T21:30:13.992Z,1.74
2022-09-10T21:32:40.468Z,1.80
2022-09-10T21:35:07.187Z,1.59
2022-09-10T21:37:33.646Z,1.62
2022-09-10T21:40:00.275Z,1.99
2022-09-10T21:42:26.935Z,1.56
2022-09-10T21:44:53.389Z,1.53
2022-09-10T21:47:19.848Z,1.37
2022-09-10T21:49:46.299Z,1.40
2022-09-10T21:52:12.836Z,1.53
2022-09-10T21:54:39.268Z,1.45
2022-09-10T21:57:05.940Z,1.34
2022-09-10T21:59:32.383Z,1.67
2022-09-10T22:01:58.900Z,1.50
2022-09-10T22:04:25.485Z,1.54
2022-09-10T22:06:52.709Z,1.69
2022-09-10T22:09:19.164Z,1.56
2022-09-10T22:11:47.981Z,1.65
2022-09-10T22:14:17.060Z,1.56
2022-09-10T22:16:44.674Z,1.67
2022-09-10T22:19:17.598Z,1.46
2022-09-10T22:21:44.628Z,1.67
2022-09-10T22:24:13.461Z,1.58
2022-09-10T22:26:42.911Z,1.51
2022-09-10T22:29:09.706Z,1.59
2022-09-10T22:31:37.037Z,1.60
2022-09-10T22:34:10.774Z,1.60
2022-09-10T22:36:39.753Z,1.47
2022-09-10T22:39:10.360Z,1.55
2022-09-10T22:41:36.920Z,1.27
2022-09-10T22:44:04.585Z,1.33
2022-09-10T22:46:32.147Z,1.50
2022-09-10T22:48:59.449Z,1.41
2022-09-10T22:51:33.195Z,1.56
2022-09-10T22:54:00.030Z,1.37
2022-09-10T22:56:27.670Z,1.49
2022-09-10T22:58:56.901Z,1.40
2022-09-10T23:01:27.696Z,1.44
2022-09-10T23:03:59.824Z,1.50
2022-09-10T23:06:28.588Z,1.49
2022-09-10T23:09:01.500Z,1.47
2022-09-10T23:11:30.180Z,1.51
2022-09-10T23:13:58.986Z,1.51
2022-09-10T23:16:32.273Z,1.28
2022-09-10T23:19:01.464Z,1.42
2022-09-10T23:21:30.001Z,1.36
2022-09-10T23:23:59.379Z,1.29
2022-09-10T23:26:26.899Z,1.28
2022-09-10T23:28:53.822Z,1.16
2022-09-10T23:31:26.617Z,1.11
2022-09-10T23:33:56.483Z,1.46
2022-09-10T23:36:23.005Z,1.32
2022-09-10T23:38:49.700Z,1.38
2022-09-10T23:41:17.162Z,1.32
2022-09-10T23:43:44.844Z,1.30
2022-09-10T23:46:12.814Z,1.09
2022-09-10T23:48:39.972Z,1.09
2022-09-10T23:51:06.608Z,1.20
2022-09-10T23:53:33.264Z,1.15
2022-09-10T23:55:59.982Z,1.14
2022-09-10T23:58:26.545Z,1.14
